createdAt,value
2023-05-14T00:00:48.229Z,10.99
2023-05-14T00:03:21.048Z,10.99
2023-05-14T00:05:50.977Z,10.99
2023-05-14T00:08:21.785Z,10.97
2023-05-14T00:10:53.654Z,10.94
2023-05-14T00:13:25.065Z,10.89
2023-05-14T00:15:56.831Z,10.83
2023-05-14T00:18:29.646Z,10.78
2023-05-14T00:21:37.943Z,10.70
2023-05-14T00:24:21.556Z,10.61
2023-05-14T00:26:57.910Z,10.54
2023-05-14T00:29:29.682Z,10.50
2023-05-14T00:32:05.798Z,10.49
2023-05-14T00:34:48.107Z,10.53
2023-05-14T00:37:23.547Z,10.57
2023-05-14T00:39:53.836Z,10.58
2023-05-14T00:42:24.209Z,10.57
2023-05-14T00:44:54.611Z,10.53
2023-05-14T00:47:25.095Z,10.54
2023-05-14T00:49:55.796Z,10.53
2023-05-14T00:52:26.214Z,10.51
2023-05-14T00:54:57.943Z,10.48
2023-05-14T00:57:28.329Z,10.44
2023-05-14T00:59:58.739Z,10.36
2023-05-14T01:02:29.110Z,10.38
2023-05-14T01:04:59.744Z,10.38
2023-05-14T01:07:33.986Z,10.37
2023-05-14T01:10:07.344Z,10.36
2023-05-14T01:12:41.617Z,10.34
2023-05-14T01:15:13.744Z,10.30
2023-05-14T01:17:46.502Z,10.29
2023-05-14T01:20:17.104Z,10.27
2023-05-14T01:22:47.457Z,10.26
2023-05-14T01:25:17.742Z,10.26
2023-05-14T01:27:54.112Z,10.23
2023-05-14T01:30:28.771Z,10.19
2023-05-14T01:33:07.234Z,10.13
2023-05-14T01:35:37.831Z,10.09
2023-05-14T01:38:10.458Z,10.04
2023-05-14T01:40:39.622Z,9.99
2023-05-14T01:43:10.249Z,9.96
2023-05-14T01:45:40.870Z,9.94
2023-05-14T01:48:11.322Z,9.92
2023-05-14T01:50:42.389Z,9.90
2023-05-14T01:53:12.597Z,9.88
2023-05-14T01:55:43.042Z,9.84
2023-05-14T01:58:13.170Z,9.82
2023-05-14T02:00:43.550Z,9.79
2023-05-14T02:03:14.028Z,9.77
2023-05-14T02:05:44.326Z,9.78
2023-05-14T02:08:14.463Z,9.80
2023-05-14T02:10:44.985Z,9.81
2023-05-14T02:13:15.458Z,9.80
2023-05-14T02:15:45.772Z,9.78
2023-05-14T02:18:16.061Z,9.76
2023-05-14T02:20:46.419Z,9.74
2023-05-14T02:23:16.631Z,9.75
2023-05-14T02:25:48.872Z,9.76
2023-05-14T02:28:19.086Z,9.76
2023-05-14T02:30:49.447Z,9.74
2023-05-14T02:33:19.941Z,9.71
2023-05-14T02:35:50.465Z,9.61
2023-05-14T02:38:22.332Z,9.62
2023-05-14T02:40:53.062Z,9.61
2023-05-14T02:43:23.655Z,9.61
2023-05-14T02:45:54.001Z,9.61
2023-05-14T02:48:24.899Z,9.59
2023-05-14T02:50:55.240Z,9.55
2023-05-14T02:53:25.442Z,9.53
2023-05-14T02:55:55.967Z,9.50
2023-05-14T02:58:28.147Z,9.46
2023-05-14T03:00:59.075Z,9.43
2023-05-14T03:03:31.553Z,9.43
2023-05-14T03:06:02.678Z,9.41
2023-05-14T03:08:32.788Z,9.46
2023-05-14T03:11:02.929Z,9.46
2023-05-14T03:13:33.146Z,9.45
2023-05-14T03:16:03.266Z,9.45
2023-05-14T03:18:34.625Z,9.44
2023-05-14T03:21:04.873Z,9.43
2023-05-14T03:23:35.529Z,9.42
2023-05-14T03:26:06.331Z,9.42
2023-05-14T03:28:36.714Z,9.44
2023-05-14T03:31:07.015Z,9.46
2023-05-14T03:33:37.395Z,9.47
2023-05-14T03:36:08.706Z,9.48
2023-05-14T03:38:38.881Z,9.46
2023-05-14T03:41:09.334Z,9.50
2023-05-14T03:43:39.813Z,9.49
2023-05-14T03:46:09.988Z,9.47
2023-05-14T03:48:41.480Z,9.46
2023-05-14T03:51:11.683Z,9.47
2023-05-14T03:53:42.277Z,9.50
2023-05-14T03:56:12.526Z,9.51
2023-05-14T03:58:42.713Z,9.51
2023-05-14T04:01:13.296Z,9.52
2023-05-14T04:03:43.778Z,9.53
2023-05-14T04:06:14.512Z,9.56
2023-05-14T04:08:45.483Z,9.64
2023-05-14T04:11:16.104Z,9.72
2023-05-14T04:13:46.526Z,9.78
2023-05-14T04:16:18.636Z,9.90
2023-05-14T04:18:49.002Z,10.08
2023-05-14T04:21:19.318Z,10.23
2023-05-14T04:23:51.609Z,10.41
2023-05-14T04:26:22.305Z,10.56
2023-05-14T04:28:52.750Z,10.73
2023-05-14T04:31:22.966Z,10.94
2023-05-14T04:33:53.433Z,11.14
2023-05-14T04:36:23.990Z,11.57
2023-05-14T04:38:54.259Z,12.07
2023-05-14T04:41:24.467Z,12.54
2023-05-14T04:43:57.841Z,12.94
2023-05-14T04:46:28.132Z,13.27
2023-05-14T04:48:58.418Z,13.55
2023-05-14T04:51:28.825Z,13.46
2023-05-14T04:53:59.092Z,13.26
2023-05-14T04:56:37.746Z,13.03
2023-05-14T04:59:07.942Z,12.78
2023-05-14T05:01:38.742Z,12.54
2023-05-14T05:04:09.037Z,12.34
2023-05-14T05:06:39.243Z,12.16
2023-05-14T05:09:09.895Z,12.00
2023-05-14T05:11:40.164Z,11.86
2023-05-14T05:14:10.604Z,11.74
2023-05-14T05:16:40.797Z,11.65
2023-05-14T05:19:11.501Z,11.60
2023-05-14T05:21:41.780Z,11.59
2023-05-14T05:24:13.370Z,11.58
2023-05-14T05:26:44.047Z,11.57
2023-05-14T05:29:14.336Z,11.56
2023-05-14T05:31:44.779Z,11.57
2023-05-14T05:34:15.611Z,11.60
2023-05-14T05:36:45.746Z,11.65
2023-05-14T05:39:16.056Z,11.71
2023-05-14T05:41:46.201Z,11.78
2023-05-14T05:44:16.398Z,11.87
2023-05-14T05:46:46.746Z,12.25
2023-05-14T05:49:17.668Z,12.73
2023-05-14T05:51:47.901Z,13.06
2023-05-14T05:54:18.182Z,13.30
2023-05-14T05:56:48.440Z,13.46
2023-05-14T05:59:18.591Z,13.77
2023-05-14T06:01:48.825Z,14.22
2023-05-14T06:04:19.259Z,14.61
2023-05-14T06:06:49.612Z,14.93
2023-05-14T06:09:21.209Z,15.31
2023-05-14T06:11:51.408Z,15.45
2023-05-14T06:14:21.608Z,15.46
2023-05-14T06:16:51.898Z,15.77
2023-05-14T06:19:23.131Z,16.18
2023-05-14T06:21:53.669Z,16.51
2023-05-14T06:24:23.972Z,16.76
2023-05-14T06:26:54.781Z,16.83
2023-05-14T06:29:25.915Z,16.91
2023-05-14T06:31:56.069Z,16.88
2023-05-14T06:34:26.497Z,16.72
2023-05-14T06:36:57.252Z,16.51
2023-05-14T06:39:28.121Z,16.38
2023-05-14T06:41:58.305Z,16.22
2023-05-14T06:44:29.322Z,16.01
2023-05-14T06:46:59.520Z,15.81
2023-05-14T06:49:29.899Z,15.67
2023-05-14T06:52:00.145Z,15.53
2023-05-14T06:54:31.205Z,15.48
2023-05-14T06:57:01.514Z,15.36
2023-05-14T06:59:32.426Z,15.27
2023-05-14T07:02:03.114Z,15.31
2023-05-14T07:04:33.336Z,15.35
2023-05-14T07:07:03.590Z,15.38
2023-05-14T07:09:33.978Z,15.36
2023-05-14T07:12:08.932Z,15.40
2023-05-14T07:14:39.339Z,15.51
2023-05-14T07:17:09.622Z,15.81
2023-05-14T07:19:39.871Z,16.08
2023-05-14T07:22:10.936Z,16.25
2023-05-14T07:24:41.165Z,16.51
2023-05-14T07:27:12.485Z,16.81
2023-05-14T07:29:42.690Z,17.01
2023-05-14T07:32:15.301Z,17.11
2023-05-14T07:34:47.250Z,17.29
2023-05-14T07:37:18.192Z,17.56
2023-05-14T07:39:48.534Z,17.95
2023-05-14T07:42:31.809Z,18.19
2023-05-14T07:45:07.771Z,18.25
2023-05-14T07:47:38.332Z,18.35
2023-05-14T07:50:11.093Z,18.56
2023-05-14T07:52:41.409Z,18.53
2023-05-14T07:55:13.172Z,18.20
2023-05-14T07:57:43.564Z,18.28
2023-05-14T08:00:16.684Z,18.42
2023-05-14T08:02:49.113Z,18.61
2023-05-14T08:05:18.100Z,18.93
2023-05-14T08:07:48.340Z,19.16
2023-05-14T08:10:18.697Z,19.40
2023-05-14T08:13:04.712Z,19.62
2023-05-14T08:15:49.129Z,19.85
2023-05-14T08:18:19.313Z,19.79
2023-05-14T08:20:49.534Z,19.61
2023-05-14T08:23:19.827Z,19.40
2023-05-14T08:25:50.969Z,19.45
2023-05-14T08:28:24.048Z,19.54
2023-05-14T08:30:52.963Z,19.73
2023-05-14T08:33:23.329Z,19.92
2023-05-14T08:35:54.931Z,20.14
2023-05-14T08:38:25.182Z,20.13
2023-05-14T08:40:58.707Z,20.31
2023-05-14T08:43:32.022Z,20.35
2023-05-14T08:46:03.399Z,20.15
2023-05-14T08:48:35.263Z,19.97
2023-05-14T08:51:06.172Z,19.95
2023-05-14T08:53:38.757Z,19.99
2023-05-14T08:56:10.078Z,20.00
2023-05-14T08:58:41.048Z,20.07
2023-05-14T09:01:11.962Z,20.13
2023-05-14T09:03:44.272Z,20.14
2023-05-14T09:06:15.629Z,20.13
2023-05-14T09:08:46.495Z,20.35
2023-05-14T09:11:16.988Z,20.61
2023-05-14T09:13:47.363Z,20.80
2023-05-14T09:16:18.146Z,20.82
2023-05-14T09:18:48.552Z,20.69
2023-05-14T09:21:20.441Z,20.76
2023-05-14T09:23:56.197Z,20.25
2023-05-14T09:26:27.956Z,19.85
2023-05-14T09:29:00.570Z,19.55
2023-05-14T09:31:31.922Z,19.31
2023-05-14T09:34:02.499Z,19.18
2023-05-14T09:36:32.949Z,19.61
2023-05-14T09:39:05.991Z,20.01
2023-05-14T09:41:37.389Z,20.48
2023-05-14T09:44:07.716Z,20.76
2023-05-14T09:46:37.891Z,20.55
2023-05-14T09:49:08.150Z,20.19
2023-05-14T09:51:39.384Z,19.87
2023-05-14T09:54:10.060Z,19.70
2023-05-14T09:56:40.853Z,19.96
2023-05-14T09:59:11.391Z,20.14
2023-05-14T10:01:43.590Z,20.49
2023-05-14T10:04:14.495Z,20.69
2023-05-14T10:06:46.359Z,20.75
2023-05-14T10:09:18.404Z,20.92
2023-05-14T10:11:52.720Z,21.00
2023-05-14T10:14:26.288Z,20.78
2023-05-14T10:16:58.579Z,20.49
2023-05-14T10:19:28.208Z,20.11
2023-05-14T10:22:04.669Z,19.73
2023-05-14T10:24:35.633Z,19.59
2023-05-14T10:27:06.846Z,19.55
2023-05-14T10:29:38.871Z,19.54
2023-05-14T10:32:13.006Z,19.68
2023-05-14T10:34:44.647Z,20.04
2023-05-14T10:37:16.586Z,20.41
2023-05-14T10:39:48.519Z,20.79
2023-05-14T10:42:20.834Z,20.85
2023-05-14T10:44:53.402Z,20.51
2023-05-14T10:47:24.002Z,19.96
2023-05-14T10:49:57.388Z,19.60
2023-05-14T10:52:28.347Z,19.35
2023-05-14T10:55:02.918Z,19.08
2023-05-14T10:57:35.904Z,18.96
2023-05-14T11:00:08.951Z,18.92
2023-05-14T11:02:40.682Z,18.97
2023-05-14T11:05:13.955Z,19.08
2023-05-14T11:07:45.282Z,19.37
2023-05-14T11:10:16.914Z,19.66
2023-05-14T11:12:48.907Z,19.86
2023-05-14T11:15:20.883Z,20.40
2023-05-14T11:17:52.080Z,21.16
2023-05-14T11:20:23.825Z,22.33
2023-05-14T11:22:55.397Z,23.37
2023-05-14T11:25:25.886Z,23.85
2023-05-14T11:27:58.879Z,23.66
2023-05-14T11:30:29.886Z,23.44
2023-05-14T11:33:01.867Z,23.78
2023-05-14T11:35:32.896Z,24.52
2023-05-14T11:38:03.057Z,24.64
2023-05-14T11:40:33.267Z,24.31
2023-05-14T11:43:03.499Z,23.85
2023-05-14T11:45:33.791Z,23.33
2023-05-14T11:48:04.487Z,22.57
2023-05-14T11:50:37.986Z,22.30
2023-05-14T11:53:08.272Z,21.70
2023-05-14T11:55:38.634Z,21.24
2023-05-14T11:58:08.771Z,20.79
2023-05-14T12:00:39.994Z,20.36
2023-05-14T12:03:12.174Z,20.08
2023-05-14T12:05:42.548Z,19.84
2023-05-14T12:08:28.524Z,19.54
2023-05-14T12:11:01.049Z,19.22
2023-05-14T12:13:32.399Z,19.03
2023-05-14T12:16:05.334Z,18.88
2023-05-14T12:18:36.112Z,19.96
2023-05-14T12:21:08.315Z,21.90
2023-05-14T12:23:41.163Z,23.24
2023-05-14T12:26:11.798Z,24.72
2023-05-14T12:28:43.877Z,25.78
2023-05-14T12:31:12.868Z,25.60
2023-05-14T12:33:43.288Z,26.27
2023-05-14T12:38:53.086Z,24.22
2023-05-14T12:41:23.337Z,23.14
2023-05-14T12:43:53.660Z,22.50
2023-05-14T12:46:24.167Z,22.69
2023-05-14T12:48:54.623Z,22.49
2023-05-14T12:51:24.806Z,23.43
2023-05-14T12:53:55.011Z,24.76
2023-05-14T12:56:28.326Z,26.00
2023-05-14T12:58:58.930Z,25.76
2023-05-14T13:01:29.641Z,26.75
2023-05-14T13:04:00.085Z,27.97
2023-05-14T13:06:31.656Z,29.05
2023-05-14T13:09:02.477Z,29.97
2023-05-14T13:11:33.072Z,30.19
2023-05-14T13:14:04.186Z,30.16
2023-05-14T13:16:34.657Z,28.74
2023-05-14T13:19:05.097Z,28.99
2023-05-14T13:21:35.380Z,29.58
2023-05-14T13:24:06.291Z,30.23
2023-05-14T13:26:46.981Z,30.98
2023-05-14T13:29:19.606Z,31.56
2023-05-14T13:31:49.989Z,31.19
2023-05-14T13:34:20.303Z,30.91
2023-05-14T13:36:51.385Z,30.27
2023-05-14T13:39:22.816Z,30.09
2023-05-14T13:41:52.992Z,29.59
2023-05-14T13:44:23.182Z,29.89
2023-05-14T13:46:53.522Z,29.55
2023-05-14T13:49:23.845Z,30.24
2023-05-14T13:51:54.096Z,30.68
2023-05-14T13:54:25.531Z,30.16
2023-05-14T13:56:56.676Z,30.30
2023-05-14T13:59:27.803Z,30.57
2023-05-14T14:01:58.400Z,30.96
2023-05-14T14:04:29.151Z,31.31
2023-05-14T14:06:59.865Z,31.51
2023-05-14T14:09:35.136Z,31.87
2023-05-14T14:12:06.983Z,32.23
2023-05-14T14:14:37.254Z,32.21
2023-05-14T14:17:08.961Z,32.30
2023-05-14T14:19:39.608Z,32.60
2023-05-14T14:22:09.895Z,32.63
2023-05-14T14:24:40.235Z,32.59
2023-05-14T14:27:10.509Z,32.74
2023-05-14T14:29:40.762Z,32.89
2023-05-14T14:32:11.961Z,32.85
2023-05-14T14:34:42.343Z,32.50
2023-05-14T14:37:12.617Z,30.85
2023-05-14T14:39:42.906Z,29.73
2023-05-14T14:42:13.041Z,30.11
2023-05-14T14:44:43.245Z,30.45
2023-05-14T14:47:13.875Z,30.92
2023-05-14T14:49:44.107Z,31.34
2023-05-14T14:52:14.872Z,31.84
2023-05-14T14:54:48.302Z,32.37
2023-05-14T14:57:33.580Z,32.60
2023-05-14T15:00:06.042Z,32.81
2023-05-14T15:02:38.373Z,33.08
2023-05-14T15:05:10.549Z,33.31
2023-05-14T15:07:40.889Z,33.25
2023-05-14T15:10:12.169Z,32.64
2023-05-14T15:12:42.619Z,32.29
2023-05-14T15:15:13.451Z,32.32
2023-05-14T15:17:43.738Z,31.99
2023-05-14T15:20:15.214Z,30.10
2023-05-14T15:22:45.987Z,27.99
2023-05-14T15:25:16.377Z,26.95
2023-05-14T15:27:46.805Z,26.08
2023-05-14T15:30:18.321Z,24.95
2023-05-14T15:32:48.677Z,24.06
2023-05-14T15:35:19.006Z,23.31
2023-05-14T15:37:49.240Z,22.47
2023-05-14T15:40:21.533Z,21.80
2023-05-14T15:42:50.470Z,21.19
2023-05-14T15:45:21.089Z,20.55
2023-05-14T15:47:51.296Z,20.02
2023-05-14T15:50:22.563Z,19.69
2023-05-14T15:52:52.940Z,19.46
2023-05-14T15:55:23.332Z,19.26
2023-05-14T15:57:53.830Z,19.07
2023-05-14T16:00:24.816Z,18.81
2023-05-14T16:02:55.621Z,18.51
2023-05-14T16:05:25.991Z,18.19
2023-05-14T16:07:56.228Z,17.91
2023-05-14T16:10:26.914Z,17.67
2023-05-14T16:12:57.375Z,17.46
2023-05-14T16:15:27.570Z,17.32
2023-05-14T16:17:57.881Z,17.19
2023-05-14T16:20:28.509Z,17.09
2023-05-14T16:22:58.714Z,17.04
2023-05-14T16:25:30.034Z,16.98
2023-05-14T16:28:00.211Z,16.90
2023-05-14T16:30:30.509Z,16.81
2023-05-14T16:33:00.797Z,16.72
2023-05-14T16:35:31.293Z,16.63
2023-05-14T16:38:01.739Z,16.58
2023-05-14T16:40:32.036Z,16.55
2023-05-14T16:43:02.233Z,16.55
2023-05-14T16:45:34.749Z,16.52
2023-05-14T16:48:06.079Z,16.52
2023-05-14T16:50:36.481Z,16.55
2023-05-14T16:53:06.725Z,16.53
2023-05-14T16:55:36.975Z,16.53
2023-05-14T16:58:07.322Z,16.53
2023-05-14T17:00:37.572Z,16.51
2023-05-14T17:03:10.532Z,16.51
2023-05-14T17:05:41.014Z,16.51
2023-05-14T17:08:11.286Z,16.53
2023-05-14T17:10:41.767Z,16.50
2023-05-14T17:13:11.988Z,16.50
2023-05-14T17:15:42.492Z,16.49
2023-05-14T17:18:13.123Z,16.47
2023-05-14T17:20:43.410Z,16.42
2023-05-14T17:23:13.555Z,16.39
2023-05-14T17:25:43.694Z,16.39
2023-05-14T17:28:14.351Z,16.38
2023-05-14T17:30:44.798Z,16.39
2023-05-14T17:33:15.236Z,16.41
2023-05-14T17:35:45.713Z,16.43
2023-05-14T17:38:16.602Z,16.45
2023-05-14T17:40:46.826Z,16.46
2023-05-14T17:43:17.366Z,16.46
2023-05-14T17:48:23.872Z,16.37
2023-05-14T17:50:54.242Z,16.31
2023-05-14T17:53:24.619Z,16.24
2023-05-14T17:55:54.954Z,16.18
2023-05-14T17:58:25.245Z,16.09
2023-05-14T18:00:55.605Z,16.01
2023-05-14T18:03:25.983Z,15.95
2023-05-14T18:05:56.349Z,15.89
2023-05-14T18:08:26.631Z,15.81
2023-05-14T18:10:58.474Z,15.74
2023-05-14T18:13:29.027Z,15.66
2023-05-14T18:16:00.643Z,15.57
2023-05-14T18:18:31.457Z,15.50
2023-05-14T18:21:01.804Z,15.44
2023-05-14T18:23:32.183Z,15.37
2023-05-14T18:26:02.858Z,15.31
2023-05-14T18:28:33.115Z,15.24
2023-05-14T18:31:04.233Z,15.16
2023-05-14T18:33:34.981Z,15.08
2023-05-14T18:36:05.887Z,14.98
2023-05-14T18:38:36.043Z,14.88
2023-05-14T18:41:06.216Z,14.80
2023-05-14T18:43:36.424Z,14.72
2023-05-14T18:46:06.643Z,14.63
2023-05-14T18:48:39.247Z,14.55
2023-05-14T18:51:11.339Z,14.47
2023-05-14T18:53:41.505Z,14.39
2023-05-14T18:56:11.632Z,14.31
2023-05-14T18:58:41.956Z,14.26
2023-05-14T19:01:12.203Z,14.22
2023-05-14T19:03:42.933Z,14.16
2023-05-14T19:06:13.165Z,14.18
2023-05-14T19:08:44.251Z,14.18
2023-05-14T19:11:18.210Z,14.18
2023-05-14T19:13:49.481Z,14.19
2023-05-14T19:16:29.232Z,14.21
2023-05-14T19:19:09.078Z,14.23
2023-05-14T19:21:39.439Z,14.24
2023-05-14T19:24:09.800Z,14.24
2023-05-14T19:26:40.143Z,14.24
2023-05-14T19:29:10.427Z,14.25
2023-05-14T19:31:41.022Z,14.25
2023-05-14T19:34:11.332Z,14.27
2023-05-14T19:36:41.750Z,14.27
2023-05-14T19:39:12.110Z,14.27
2023-05-14T19:41:42.368Z,14.27
2023-05-14T19:44:12.840Z,14.23
2023-05-14T19:46:45.640Z,14.24
2023-05-14T19:49:16.528Z,14.22
2023-05-14T19:51:46.742Z,14.19
2023-05-14T19:54:17.103Z,14.16
2023-05-14T19:56:47.613Z,14.14
2023-05-14T19:59:17.870Z,14.12
2023-05-14T20:01:48.896Z,14.12
2023-05-14T20:04:19.751Z,14.12
2023-05-14T20:06:49.909Z,14.11
2023-05-14T20:09:20.483Z,14.10
2023-05-14T20:11:50.688Z,14.09
2023-05-14T20:14:20.997Z,14.08
2023-05-14T20:16:51.219Z,14.05
2023-05-14T20:19:22.198Z,14.01
2023-05-14T20:21:52.599Z,13.95
2023-05-14T20:24:22.819Z,13.95
2023-05-14T20:26:53.129Z,13.91
2023-05-14T20:29:23.369Z,13.87
2023-05-14T20:31:53.583Z,13.82
2023-05-14T20:34:24.136Z,13.76
2023-05-14T20:36:54.836Z,13.71
2023-05-14T20:39:25.334Z,13.65
2023-05-14T20:41:55.920Z,13.60
2023-05-14T20:44:26.133Z,13.54
2023-05-14T20:46:56.404Z,13.48
2023-05-14T20:49:26.715Z,13.43
2023-05-14T20:51:57.407Z,13.34
2023-05-14T20:54:27.626Z,13.31
2023-05-14T20:56:57.862Z,13.26
2023-05-14T20:59:28.096Z,13.18
2023-05-14T21:01:58.374Z,13.12
2023-05-14T21:04:28.883Z,13.06
2023-05-14T21:06:59.164Z,12.99
2023-05-14T21:09:29.306Z,12.93
2023-05-14T21:12:00.028Z,12.86
2023-05-14T21:14:30.804Z,12.79
2023-05-14T21:17:01.154Z,12.72
2023-05-14T21:19:31.301Z,12.64
2023-05-14T21:22:01.523Z,12.58
2023-05-14T21:24:31.822Z,12.52
2023-05-14T21:27:02.167Z,12.43
2023-05-14T21:29:32.994Z,12.39
2023-05-14T21:32:03.268Z,12.30
2023-05-14T21:34:34.344Z,12.26
2023-05-14T21:37:04.547Z,12.19
2023-05-14T21:39:34.728Z,12.12
2023-05-14T21:42:05.153Z,12.05
2023-05-14T21:44:35.534Z,11.98
2023-05-14T21:47:06.445Z,11.98
2023-05-14T21:49:36.709Z,11.94
2023-05-14T21:52:07.903Z,11.90
2023-05-14T21:54:41.071Z,11.86
2023-05-14T21:57:11.286Z,11.81
2023-05-14T21:59:41.896Z,11.76
2023-05-14T22:02:12.901Z,11.69
2023-05-14T22:04:43.181Z,11.68
2023-05-14T22:07:13.476Z,11.65
2023-05-14T22:09:43.663Z,11.63
2023-05-14T22:12:13.803Z,11.60
2023-05-14T22:14:44.039Z,11.55
2023-05-14T22:17:14.312Z,11.54
2023-05-14T22:19:44.473Z,11.54
2023-05-14T22:22:14.643Z,11.54
2023-05-14T22:24:44.841Z,11.51
2023-05-14T22:27:15.006Z,11.54
2023-05-14T22:29:45.437Z,11.53
2023-05-14T22:32:16.199Z,11.50
2023-05-14T22:34:46.397Z,11.47
2023-05-14T22:37:16.783Z,11.44
2023-05-14T22:39:47.174Z,11.42
2023-05-14T22:42:17.386Z,11.39
2023-05-14T22:44:47.524Z,11.37
2023-05-14T22:47:17.726Z,11.37
2023-05-14T22:49:47.914Z,11.38
2023-05-14T22:52:19.474Z,11.38
2023-05-14T22:54:50.934Z,11.37
2023-05-14T22:57:22.077Z,11.35
2023-05-14T22:59:52.904Z,11.34
2023-05-14T23:02:23.139Z,11.36
2023-05-14T23:04:53.466Z,11.36
2023-05-14T23:07:23.845Z,11.38
2023-05-14T23:09:54.025Z,11.43
2023-05-14T23:12:24.363Z,11.44
2023-05-14T23:14:54.527Z,11.46
2023-05-14T23:17:24.758Z,11.47
2023-05-14T23:19:55.376Z,11.46
2023-05-14T23:22:25.660Z,11.45
2023-05-14T23:24:55.842Z,11.43
2023-05-14T23:27:26.135Z,11.42
2023-05-14T23:29:56.358Z,11.41
2023-05-14T23:32:26.702Z,11.42
2023-05-14T23:34:57.251Z,11.43
2023-05-14T23:37:27.635Z,11.44
2023-05-14T23:39:57.759Z,11.45
2023-05-14T23:42:27.940Z,11.45
2023-05-14T23:44:58.139Z,11.45
2023-05-14T23:47:28.430Z,11.49
2023-05-14T23:49:58.657Z,11.54
2023-05-14T23:52:28.785Z,11.55
2023-05-14T23:54:58.928Z,11.60
2023-05-14T23:57:29.182Z,11.61
2023-05-14T23:59:59.333Z,11.61
